Time;durP1;ratioP1;P1;durP2;ratioP2;P2;SDS_P1;SDS_P2;PMS_P1;PMS_P2;Temp;Humidity;BMP_temperature;BMP_pressure;BME280_temperature;BME280_humidity;BME280_pressure;Samples;Min_cycle;Max_cycle;Signal;HPM_P1;HPM_P2
2022/08/21 00:00:40;;;;;;;9.43;4.00;;;;;;;-150.27;100.00;61272.81;5233025;28;20025;-73
2022/08/21 00:03:12;;;;;;;11.50;3.80;;;;;;;-150.27;100.00;61272.81;5251127;28;20076;-72
2022/08/21 00:05:47;;;;;;;13.23;5.40;;;;;;;-150.27;100.00;61272.81;5249537;28;20033;-72
2022/08/21 00:08:19;;;;;;;10.47;4.97;;;;;;;-150.27;100.00;61272.81;5250815;28;20029;-73
2022/08/21 00:10:51;;;;;;;9.27;4.40;;;;;;;-150.27;100.00;61272.81;5233121;28;20052;-73
2022/08/21 00:13:22;;;;;;;14.93;4.73;;;;;;;-150.27;100.00;61272.81;5250960;28;20025;-73
2022/08/21 00:15:54;;;;;;;12.40;4.20;;;;;;;-150.27;100.00;61272.81;5250702;28;20104;-73
2022/08/21 00:18:26;;;;;;;14.87;5.30;;;;;;;-150.27;100.00;61272.81;5251027;28;20028;-73
2022/08/21 00:20:57;;;;;;;11.23;3.90;;;;;;;-150.27;100.00;61272.81;5249762;28;20517;-73
2022/08/21 00:23:28;;;;;;;9.40;4.70;;;;;;;-150.27;100.00;61272.81;5251099;28;20162;-73
2022/08/21 00:26:00;;;;;;;13.70;4.30;;;;;;;-150.27;100.00;61272.81;5232579;28;20025;-73
2022/08/21 00:28:31;;;;;;;9.73;4.80;;;;;;;-150.27;100.00;61272.81;5232794;28;20052;-73
2022/08/21 00:31:03;;;;;;;6.97;4.13;;;;;;;-150.27;100.00;61272.81;5250895;28;20033;-73
2022/08/21 00:33:35;;;;;;;15.03;4.47;;;;;;;-150.27;100.00;61272.81;5236226;28;20025;-73
2022/08/21 00:36:06;;;;;;;8.90;4.50;;;;;;;-150.27;100.00;61272.81;5254554;28;20056;-73
2022/08/21 00:38:38;;;;;;;10.53;4.93;;;;;;;-150.27;100.00;61272.81;5236816;28;20043;-73
2022/08/21 00:41:10;;;;;;;11.57;4.20;;;;;;;-150.27;100.00;61272.81;5237169;28;20053;-73
2022/08/21 00:43:41;;;;;;;6.93;4.30;;;;;;;-150.27;100.00;61272.81;5254458;28;20114;-73
2022/08/21 00:46:13;;;;;;;9.40;4.73;;;;;;;-150.27;100.00;61272.81;5255084;28;20071;-73
2022/08/21 00:48:44;;;;;;;8.17;4.03;;;;;;;-150.27;100.00;61272.81;5254118;28;20025;-73
2022/08/21 00:51:23;;;;;;;6.77;4.33;;;;;;;-150.27;100.00;61272.81;5254202;28;20053;-73
2022/08/21 00:53:59;;;;;;;8.40;4.20;;;;;;;-150.27;100.00;61272.81;5254934;28;20531;-73
2022/08/21 00:56:31;;;;;;;10.53;4.60;;;;;;;-150.27;100.00;61272.81;5236652;28;20021;-73
2022/08/21 00:59:03;;;;;;;7.30;4.00;;;;;;;-150.27;100.00;61272.81;5254881;28;20037;-73
2022/08/21 01:01:35;;;;;;;7.13;4.43;;;;;;;-150.27;100.00;61272.81;5256737;28;20025;-73
2022/08/21 01:04:07;;;;;;;8.07;4.30;;;;;;;-150.27;100.00;61272.81;5255915;28;20017;-73
2022/08/21 01:06:38;;;;;;;13.03;4.23;;;;;;;-150.27;100.00;61272.81;5254246;28;20021;-73
2022/08/21 01:09:10;;;;;;;10.80;4.73;;;;;;;-150.27;100.00;61272.81;5236593;28;20033;-73
2022/08/21 01:11:45;;;;;;;6.93;4.07;;;;;;;-150.27;100.00;61272.81;5253357;28;20049;-73
2022/08/21 01:14:18;;;;;;;10.10;4.47;;;;;;;-150.27;100.00;61272.81;5236435;28;20106;-73
2022/08/21 01:16:52;;;;;;;11.10;4.27;;;;;;;-150.27;100.00;61272.81;5236207;28;20029;-73
2022/08/21 01:19:24;;;;;;;;;;;;;;;-150.27;100.00;61272.81;5235899;28;20116;-73
2022/08/21 01:21:56;;;;;;;13.03;4.30;;;;;;;-150.27;100.00;61272.81;5254191;28;19999;-73
2022/08/21 01:24:27;;;;;;;8.60;4.20;;;;;;;-150.27;100.00;61272.81;5253868;28;20079;-73
2022/08/21 01:27:00;;;;;;;8.83;4.40;;;;;;;-150.27;100.00;61272.81;5254228;28;20033;-73
2022/08/21 01:29:56;;;;;;;7.07;4.43;;;;;;;-150.27;100.00;61272.81;5252394;28;20021;-73
2022/08/21 01:32:28;;;;;;;10.73;4.47;;;;;;;-150.27;100.00;61272.81;5253471;28;20108;-73
2022/08/21 01:34:59;;;;;;;10.57;4.90;;;;;;;-150.27;100.00;61272.81;5253341;28;20464;-73
2022/08/21 01:37:31;;;;;;;11.10;5.00;;;;;;;-150.27;100.00;61272.81;5253951;28;20478;-73
2022/08/21 01:40:04;;;;;;;9.80;4.23;;;;;;;-150.27;100.00;61272.81;5257233;28;20036;-73
2022/08/21 01:42:36;;;;;;;12.63;5.77;;;;;;;-150.27;100.00;61272.81;5257810;28;20025;-73
2022/08/21 01:45:09;;;;;;;6.13;4.17;;;;;;;-150.27;100.00;61272.81;5254539;28;20059;-73
2022/08/21 01:47:40;;;;;;;7.87;4.50;;;;;;;-150.27;100.00;61272.81;5253698;28;20021;-73
2022/08/21 01:50:16;;;;;;;9.63;4.50;;;;;;;-150.27;100.00;61272.81;5252539;28;20488;-73
2022/08/21 01:52:49;;;;;;;7.10;4.07;;;;;;;-150.27;100.00;61272.81;5254114;28;20033;-73
2022/08/21 01:55:21;;;;;;;9.20;4.07;;;;;;;-150.27;100.00;61272.81;5253128;28;20020;-73
2022/08/21 01:57:53;;;;;;;8.30;4.97;;;;;;;-150.27;100.00;61272.81;5253731;28;20025;-73
2022/08/21 02:00:25;;;;;;;9.37;4.70;;;;;;;-150.27;100.00;61272.81;5253368;28;20025;-73
2022/08/21 02:02:56;;;;;;;10.37;4.90;;;;;;;-150.27;100.00;61272.81;5236198;28;20035;-73
2022/08/21 02:05:28;;;;;;;17.43;5.07;;;;;;;-150.27;100.00;61272.81;5255813;28;20526;-73
2022/08/21 02:08:00;;;;;;;11.53;4.43;;;;;;;-150.27;100.00;61272.81;5252896;28;20036;-73
2022/08/21 02:10:33;;;;;;;7.40;4.47;;;;;;;-150.27;100.00;61272.81;5252901;28;20072;-72
2022/08/21 02:13:04;;;;;;;9.27;4.70;;;;;;;-150.27;100.00;61272.81;5235706;28;20477;-73
2022/08/21 02:15:36;;;;;;;9.50;4.50;;;;;;;-150.27;100.00;61272.81;5253178;28;20024;-73
2022/08/21 02:18:07;;;;;;;10.97;4.90;;;;;;;-150.27;100.00;61272.81;5235385;28;20025;-73
2022/08/21 02:20:43;;;;;;;9.27;4.93;;;;;;;-150.27;100.00;61272.81;5252064;28;20416;-73
2022/08/21 02:23:15;;;;;;;10.67;5.17;;;;;;;-150.27;100.00;61272.81;5252611;28;20406;-73
2022/08/21 02:25:46;;;;;;;8.90;4.63;;;;;;;-150.27;100.00;61272.81;5252641;28;20036;-73
2022/08/21 02:28:18;;;;;;;9.70;4.83;;;;;;;-150.27;100.00;61272.81;5235103;28;20025;-73
2022/08/21 02:30:49;;;;;;;11.17;5.40;;;;;;;-150.27;100.00;61272.81;5252774;28;20013;-73
2022/08/21 02:33:21;;;;;;;11.10;4.47;;;;;;;-150.27;100.00;61272.81;5252834;28;20032;-73
2022/08/21 02:35:53;;;;;;;10.93;4.57;;;;;;;-150.27;100.00;61272.81;5251687;28;20499;-73
2022/08/21 02:38:26;;;;;;;8.90;4.53;;;;;;;-150.27;100.00;61272.81;5252615;28;20498;-73
2022/08/21 02:40:58;;;;;;;8.48;5.13;;;;;;;-150.27;100.00;61272.81;5253069;28;20021;-73
2022/08/21 02:43:30;;;;;;;7.90;4.90;;;;;;;-150.27;100.00;61272.81;5252384;28;20573;-73
2022/08/21 02:46:03;;;;;;;8.80;4.93;;;;;;;-150.27;100.00;61272.81;5252535;28;20032;-73
2022/08/21 02:48:36;;;;;;;12.15;5.28;;;;;;;-150.27;100.00;61272.81;5251254;28;20029;-73
2022/08/21 02:51:16;;;;;;;7.23;5.20;;;;;;;-150.27;100.00;61272.81;5252651;28;20029;-73
2022/08/21 02:53:49;;;;;;;8.43;5.37;;;;;;;-150.27;100.00;61272.81;5234221;28;20043;-73
2022/08/21 02:56:21;;;;;;;11.63;6.17;;;;;;;-150.27;100.00;61272.81;5233421;28;20198;-73
2022/08/21 02:58:53;;;;;;;8.20;6.27;;;;;;;-150.27;100.00;61272.81;5251993;28;20024;-73
2022/08/21 03:01:24;;;;;;;17.33;8.03;;;;;;;-150.27;100.00;61272.81;5252295;28;20017;-73
2022/08/21 03:03:55;;;;;;;13.80;6.83;;;;;;;-150.27;100.00;61272.81;5233114;28;20040;-73
2022/08/21 03:06:29;;;;;;;11.87;7.67;;;;;;;-150.27;100.00;61272.81;5234265;28;20564;-73
2022/08/21 03:09:00;;;;;;;8.87;6.60;;;;;;;-150.27;100.00;61272.81;5251990;28;20029;-73
2022/08/21 03:11:31;;;;;;;11.30;6.90;;;;;;;-150.27;100.00;61272.81;5233451;28;20045;-73
2022/08/21 03:14:04;;;;;;;11.27;7.30;;;;;;;-150.27;100.00;61272.81;5252503;28;20045;-73
2022/08/21 03:16:36;;;;;;;12.70;6.53;;;;;;;-150.27;100.00;61272.81;5233750;28;20043;-73
2022/08/21 03:19:07;;;;;;;15.90;7.23;;;;;;;-150.27;100.00;61272.81;5251510;28;20485;-73
2022/08/21 03:21:38;;;;;;;13.77;6.77;;;;;;;-150.27;100.00;61272.81;5251329;28;20655;-73
2022/08/21 03:24:09;;;;;;;16.47;8.20;;;;;;;-150.27;100.00;61272.81;5252167;28;20033;-73
2022/08/21 03:26:41;;;;;;;14.37;7.70;;;;;;;-150.27;100.00;61272.81;5251777;28;20017;-73
2022/08/21 03:29:12;;;;;;;12.00;6.97;;;;;;;-150.27;100.00;61272.81;5251518;28;20033;-73
2022/08/21 03:31:43;;;;;;;12.60;7.57;;;;;;;-150.27;100.00;61272.81;5233737;28;20021;-73
2022/08/21 03:34:14;;;;;;;14.27;7.37;;;;;;;-150.27;100.00;61272.81;5250452;28;20047;-73
2022/08/21 03:36:46;;;;;;;13.07;7.33;;;;;;;-150.27;100.00;61272.81;5251740;28;20083;-73
2022/08/21 03:39:18;;;;;;;13.30;8.30;;;;;;;-150.27;100.00;61272.81;5251086;28;20032;-73
2022/08/21 03:41:49;;;;;;;14.83;7.23;;;;;;;-150.27;100.00;61272.81;5251512;28;20029;-73
2022/08/21 03:44:21;;;;;;;10.70;7.90;;;;;;;-150.27;100.00;61272.81;5233447;28;20051;-73
2022/08/21 03:46:52;;;;;;;13.30;7.67;;;;;;;-150.27;100.00;61272.81;5233181;28;20052;-73
2022/08/21 03:49:25;;;;;;;11.07;6.90;;;;;;;-150.27;100.00;61272.81;5250575;28;20059;-73
2022/08/21 03:51:56;;;;;;;11.80;7.50;;;;;;;-150.27;100.00;61272.81;5251045;28;20032;-73
2022/08/21 03:54:27;;;;;;;14.73;7.27;;;;;;;-150.27;100.00;61272.81;5251413;28;20654;-73
2022/08/21 03:57:00;;;;;;;10.00;7.43;;;;;;;-150.27;100.00;61272.81;5250996;28;20060;-73
2022/08/21 03:59:31;;;;;;;11.57;6.63;;;;;;;-150.27;100.00;61272.81;5233460;28;20461;-73
2022/08/21 04:02:04;;;;;;;16.80;7.40;;;;;;;-150.27;100.00;61272.81;5251200;28;20135;-73
2022/08/21 04:04:36;;;;;;;11.95;6.85;;;;;;;-150.27;100.00;61272.81;5248622;28;20027;-73
2022/08/21 04:07:08;;;;;;;13.03;6.63;;;;;;;-150.27;100.00;61272.81;5251248;28;20021;-73
2022/08/21 04:09:39;;;;;;;15.87;7.50;;;;;;;-150.27;100.00;61272.81;5232677;28;20056;-73
2022/08/21 04:12:10;;;;;;;13.67;7.70;;;;;;;-150.27;100.00;61272.81;5251293;28;20029;-73
2022/08/21 04:14:42;;;;;;;12.30;7.20;;;;;;;-150.27;100.00;61272.81;5251018;28;20036;-73
2022/08/21 04:17:13;;;;;;;17.00;8.83;;;;;;;-150.27;100.00;61272.81;5233129;28;20025;-73
2022/08/21 04:19:44;;;;;;;9.33;7.00;;;;;;;-150.27;100.00;61272.81;5249701;28;20032;-73
2022/08/21 04:22:16;;;;;;;15.03;7.33;;;;;;;-150.27;100.00;61272.81;5251084;28;20025;-73
2022/08/21 04:24:47;;;;;;;14.20;7.40;;;;;;;-150.27;100.00;61272.81;5251295;28;20041;-73
2022/08/21 04:27:19;;;;;;;12.60;7.63;;;;;;;-150.27;100.00;61272.81;5250350;28;20060;-73
2022/08/21 04:29:50;;;;;;;11.53;7.27;;;;;;;-150.27;100.00;61272.81;5233285;28;20481;-73
2022/08/21 04:32:25;;;;;;;15.10;6.83;;;;;;;-150.27;100.00;61272.81;5232529;28;20021;-73
2022/08/21 04:35:01;;;;;;;11.07;7.63;;;;;;;-150.27;100.00;61272.81;5232221;28;20021;-73
2022/08/21 04:37:32;;;;;;;10.63;6.97;;;;;;;-150.27;100.00;61272.81;5250024;28;20051;-73
2022/08/21 04:40:06;;;;;;;13.10;6.60;;;;;;;-150.27;100.00;61272.81;5251054;28;20033;-73
2022/08/21 04:42:51;;;;;;;12.93;7.50;;;;;;;-150.27;100.00;61272.81;5250119;28;20029;-73
2022/08/21 04:45:37;;;;;;;11.77;7.37;;;;;;;-150.27;100.00;61272.81;5250668;28;20040;-73
2022/08/21 04:48:13;;;;;;;9.87;6.70;;;;;;;-150.27;100.00;61272.81;5249642;28;20025;-73
2022/08/21 04:51:03;;;;;;;12.90;7.37;;;;;;;-150.27;100.00;61272.81;5232699;28;20396;-73
2022/08/21 04:53:42;;;;;;;12.87;7.87;;;;;;;-150.27;100.00;61272.81;5250822;28;20525;-73
2022/08/21 04:56:31;;;;;;;13.70;7.47;;;;;;;-150.27;100.00;61272.81;5249910;28;20515;-73
2022/08/21 04:59:10;;;;;;;10.50;6.03;;;;;;;-150.27;100.00;61272.81;5250698;28;20051;-73
2022/08/21 05:01:43;;;;;;;12.27;5.83;;;;;;;-150.27;100.00;61272.81;5250177;28;20120;-73
2022/08/21 05:04:18;;;;;;;11.20;5.93;;;;;;;-150.27;100.00;61272.81;5248975;28;20108;-73
2022/08/21 05:06:53;;;;;;;13.03;6.63;;;;;;;-150.27;100.00;61272.81;5250303;28;20025;-73
2022/08/21 05:09:25;;;;;;;14.03;6.37;;;;;;;-150.27;100.00;61272.81;5250513;28;20032;-72
2022/08/21 05:11:57;;;;;;;12.27;6.07;;;;;;;-150.27;100.00;61272.81;5250255;28;20025;-73
2022/08/21 05:14:28;;;;;;;11.87;5.37;;;;;;;-150.27;100.00;61272.81;5250584;28;20033;-73
2022/08/21 05:16:59;;;;;;;11.53;5.77;;;;;;;-150.27;100.00;61272.81;5250299;28;20025;-73
2022/08/21 05:19:31;;;;;;;12.73;6.00;;;;;;;-150.27;100.00;61272.81;5235014;28;20114;-73
2022/08/21 05:22:02;;;;;;;11.67;6.23;;;;;;;-150.27;100.00;61272.81;5254387;28;20025;-73
2022/08/21 05:24:34;;;;;;;16.10;6.20;;;;;;;-150.27;100.00;61272.81;5235679;28;20028;-73
2022/08/21 05:27:06;;;;;;;11.97;6.00;;;;;;;-150.27;100.00;61272.81;5236581;28;20049;-73
2022/08/21 05:29:38;;;;;;;14.47;5.90;;;;;;;-150.27;100.00;61272.81;5253668;28;20126;-73
2022/08/21 05:32:13;;;;;;;12.53;5.87;;;;;;;-150.27;100.00;61272.81;5254316;28;20025;-73
2022/08/21 05:34:45;;;;;;;12.47;5.30;;;;;;;-150.27;100.00;61272.81;5252658;28;20423;-73
2022/08/21 05:37:16;;;;;;;10.93;4.67;;;;;;;-150.27;100.00;61272.81;5254056;28;20024;-74
2022/08/21 05:39:47;;;;;;;12.03;5.50;;;;;;;-150.27;100.00;61272.81;5253611;28;20029;-73
2022/08/21 05:42:19;;;;;;;13.17;5.03;;;;;;;-150.27;100.00;61272.81;5253751;28;20071;-73
2022/08/21 05:44:50;;;;;;;9.83;5.27;;;;;;;-150.27;100.00;61272.81;5253989;28;20037;-73
2022/08/21 05:47:21;;;;;;;21.23;7.23;;;;;;;-150.27;100.00;61272.81;5253195;28;20033;-73
2022/08/21 05:49:52;;;;;;;9.73;5.57;;;;;;;-150.27;100.00;61272.81;5235084;28;20569;-73
2022/08/21 05:52:24;;;;;;;10.80;5.33;;;;;;;-150.27;100.00;61272.81;5235568;28;20029;-73
2022/08/21 05:54:55;;;;;;;14.47;5.20;;;;;;;-150.27;100.00;61272.81;5253847;28;20052;-73
2022/08/21 05:57:27;;;;;;;13.07;4.93;;;;;;;-150.27;100.00;61272.81;5253134;28;20024;-73
2022/08/21 05:59:58;;;;;;;10.47;5.20;;;;;;;-150.27;100.00;61272.81;5253572;28;20112;-73
2022/08/21 06:02:30;;;;;;;13.17;5.03;;;;;;;-150.27;100.00;61272.81;5253554;28;20029;-73
2022/08/21 06:05:02;;;;;;;8.73;4.57;;;;;;;-150.27;100.00;61272.81;5252215;28;20108;-73
2022/08/21 06:07:33;;;;;;;11.17;4.27;;;;;;;-150.27;100.00;61272.81;5253364;28;20837;-73
2022/08/21 06:10:05;;;;;;;10.90;5.27;;;;;;;-150.27;100.00;61272.81;5235228;28;20040;-73
2022/08/21 06:12:36;;;;;;;11.83;5.00;;;;;;;-150.27;100.00;61272.81;5235500;28;20029;-73
2022/08/21 06:15:08;;;;;;;11.17;4.83;;;;;;;-150.27;100.00;61272.81;5253075;28;20106;-74
2022/08/21 06:17:39;;;;;;;10.83;4.37;;;;;;;-150.27;100.00;61272.81;5253183;28;20032;-73
2022/08/21 06:20:10;;;;;;;11.70;5.27;;;;;;;-150.27;100.00;61272.81;5252336;28;20025;-73
2022/08/21 06:22:42;;;;;;;12.00;5.97;;;;;;;-150.27;100.00;61272.81;5234765;28;20028;-72
2022/08/21 06:25:13;;;;;;;10.27;4.40;;;;;;;-150.27;100.00;61272.81;5253000;28;20029;-73
2022/08/21 06:27:45;;;;;;;9.23;5.30;;;;;;;-150.27;100.00;61272.81;5252790;28;20032;-73
2022/08/21 06:30:17;;;;;;;11.17;5.53;;;;;;;-150.27;100.00;61272.81;5233983;28;20117;-72
2022/08/21 06:32:48;;;;;;;11.77;5.60;;;;;;;-150.27;100.00;61272.81;5251731;28;20033;-73
2022/08/21 06:35:19;;;;;;;10.83;4.77;;;;;;;-150.27;100.00;61272.81;5252639;28;20033;-73
2022/08/21 06:37:51;;;;;;;15.73;5.17;;;;;;;-150.27;100.00;61272.81;5252610;28;20024;-73
2022/08/21 06:40:23;;;;;;;13.13;5.13;;;;;;;-150.27;100.00;61272.81;5252341;28;20024;-72
2022/08/21 06:42:54;;;;;;;10.33;5.30;;;;;;;-150.27;100.00;61272.81;5252816;28;20116;-73
2022/08/21 06:45:25;;;;;;;19.97;5.27;;;;;;;-150.27;100.00;61272.81;5234162;28;20037;-73
2022/08/21 06:47:57;;;;;;;10.83;4.87;;;;;;;-150.27;100.00;61272.81;5251939;28;20117;-73
2022/08/21 06:50:29;;;;;;;13.83;5.50;;;;;;;-150.27;100.00;61272.81;5251962;28;20024;-72
2022/08/21 06:53:10;;;;;;;16.23;4.97;;;;;;;-150.27;100.00;61272.81;5251403;28;20037;-73
2022/08/21 06:55:42;;;;;;;16.27;6.57;;;;;;;-150.27;100.00;61272.81;5234305;28;20021;-73
2022/08/21 06:58:14;;;;;;;10.43;4.63;;;;;;;-150.27;100.00;61272.81;5251981;28;20025;-72
2022/08/21 07:00:48;;;;;;;16.10;5.00;;;;;;;-150.27;100.00;61272.81;5252437;28;20433;-72
2022/08/21 07:03:27;;;;;;;;;;;;;;;-150.27;100.00;61272.81;5265332;28;20024;-73
2022/08/21 07:05:59;;;;;;;17.03;6.50;;;;;;;-150.27;100.00;61272.81;5260754;28;20447;-73
2022/08/21 07:08:30;;;;;;;11.03;5.00;;;;;;;-150.27;100.00;61272.81;5277204;28;20021;-73
2022/08/21 07:11:06;;;;;;;11.53;4.63;;;;;;;-150.27;100.00;61272.81;5275162;28;20052;-72
2022/08/21 07:13:38;;;;;;;13.67;5.17;;;;;;;-150.27;100.00;61272.81;5278070;28;20063;-73
2022/08/21 07:16:10;;;;;;;24.73;6.60;;;;;;;-150.27;100.00;61272.81;5276683;28;20049;-74
2022/08/21 07:18:41;;;;;;;17.30;5.07;;;;;;;-150.27;100.00;61272.81;5292627;28;20024;-73
2022/08/21 07:21:12;;;;;;;13.87;5.77;;;;;;;-150.27;100.00;61272.81;5259887;28;20016;-72
2022/08/21 07:23:48;;;;;;;12.33;4.83;;;;;;;-150.27;100.00;61272.81;5254446;28;20021;-72
2022/08/21 07:26:21;;;;;;;10.37;4.40;;;;;;;-150.27;100.00;61272.81;5254174;28;20028;-72
2022/08/21 07:28:53;;;;;;;14.55;5.47;;;;;;;-150.27;100.00;61272.81;5253510;28;20524;-73
2022/08/21 07:31:25;;;;;;;16.10;4.67;;;;;;;-150.27;100.00;61272.81;5271414;28;20028;-72
2022/08/21 07:33:57;;;;;;;17.90;5.20;;;;;;;-150.27;100.00;61272.81;5253955;28;20023;-72
2022/08/21 07:36:28;;;;;;;12.87;5.40;;;;;;;-150.27;100.00;61272.81;5271801;28;20032;-73
2022/08/21 07:39:00;;;;;;;15.80;5.10;;;;;;;-150.27;100.00;61272.81;5271115;28;20112;-72
2022/08/21 07:41:31;;;;;;;12.97;5.27;;;;;;;-150.27;100.00;61272.81;5253383;28;20481;-72
2022/08/21 07:44:03;;;;;;;15.57;4.73;;;;;;;-150.27;100.00;61272.81;5271883;28;20503;-72
2022/08/21 07:46:34;;;;;;;15.97;4.90;;;;;;;-150.27;100.00;61272.81;5254066;28;20052;-72
2022/08/21 07:49:05;;;;;;;13.20;4.10;;;;;;;-150.27;100.00;61272.81;5271046;28;20644;-73
2022/08/21 07:51:37;;;;;;;10.77;3.90;;;;;;;-150.27;100.00;61272.81;5272032;28;20024;-73
2022/08/21 07:54:08;;;;;;;16.50;4.07;;;;;;;-150.27;100.00;61272.81;5272124;28;20090;-72
2022/08/21 07:56:40;;;;;;;11.07;3.92;;;;;;;-150.27;100.00;61272.81;5271498;28;20652;-72
2022/08/21 07:59:11;;;;;;;13.25;4.57;;;;;;;-150.27;100.00;61272.81;5272426;28;20186;-73
2022/08/21 08:01:42;;;;;;;14.48;3.53;;;;;;;-150.27;100.00;61272.81;5253535;28;20031;-73
2022/08/21 08:04:15;;;;;;;8.32;3.38;;;;;;;-150.27;100.00;61272.81;5270689;28;20115;-72
2022/08/21 08:06:46;;;;;;;16.55;5.13;;;;;;;-150.27;100.00;61272.81;5253600;28;20027;-73
2022/08/21 08:09:17;;;;;;;10.32;3.80;;;;;;;-150.27;100.00;61272.81;5271895;28;20036;-73
2022/08/21 08:11:49;;;;;;;11.63;3.65;;;;;;;-150.27;100.00;61272.81;5271387;28;20072;-72
2022/08/21 08:14:20;;;;;;;13.13;4.28;;;;;;;-150.27;100.00;61272.81;5271722;28;20032;-73
2022/08/21 08:16:51;;;;;;;16.02;3.40;;;;;;;-150.27;100.00;61272.81;5272099;28;20025;-74
2022/08/21 08:19:22;;;;;;;8.57;2.95;;;;;;;-150.27;100.00;61272.81;5245367;28;20020;-74
2022/08/21 08:21:54;;;;;;;11.23;3.40;;;;;;;-150.27;100.00;61272.81;5253824;28;20104;-74
2022/08/21 08:24:25;;;;;;;16.13;3.83;;;;;;;-150.27;100.00;61272.81;5241803;28;20029;-74
2022/08/21 08:26:57;;;;;;;11.25;3.38;;;;;;;-150.27;100.00;61272.81;5257745;28;20029;-74
2022/08/21 08:29:30;;;;;;;10.85;2.95;;;;;;;-150.27;100.00;61272.81;5260507;28;20028;-74
2022/08/21 08:32:03;;;;;;;16.05;4.65;;;;;;;-150.27;100.00;61272.81;5268079;28;20056;-80
2022/08/21 08:34:36;;;;;;;13.83;4.47;;;;;;;-150.27;100.00;61272.81;5269368;28;20055;-82
2022/08/21 08:37:09;;;;;;;11.07;2.80;;;;;;;-150.27;100.00;61272.81;5271540;28;20024;-82
2022/08/21 08:39:41;;;;;;;15.00;3.50;;;;;;;-150.27;100.00;61272.81;5272324;28;20035;-83
2022/08/21 08:42:17;;;;;;;12.90;3.50;;;;;;;-150.27;100.00;61272.81;5254056;28;20024;-79
2022/08/21 08:44:55;;;;;;;8.75;2.60;;;;;;;-150.27;100.00;61272.81;5272221;28;20041;-78
2022/08/21 08:47:28;;;;;;;12.90;3.53;;;;;;;-150.27;100.00;61272.81;5263717;28;20033;-81
2022/08/21 08:50:10;;;;;;;11.98;2.80;;;;;;;-150.27;100.00;61272.81;5238652;28;20089;-80
2022/08/21 08:52:48;;;;;;;9.75;2.85;;;;;;;-150.27;100.00;61272.81;5259121;28;20691;-81
2022/08/21 08:55:26;;;;;;;11.82;3.85;;;;;;;-150.27;100.00;61272.81;5254595;28;20074;-80
2022/08/21 08:57:57;;;;;;;13.80;3.20;;;;;;;-150.27;100.00;61272.81;5265514;28;20020;-80
2022/08/21 09:00:29;;;;;;;8.52;2.80;;;;;;;-150.27;100.00;61272.81;5265483;28;20032;-81
2022/08/21 09:03:02;;;;;;;11.32;2.65;;;;;;;-150.27;100.00;61272.81;5245383;28;20036;-81
2022/08/21 09:05:47;;;;;;;10.85;2.90;;;;;;;-150.27;100.00;61272.81;5263851;28;20071;-81
2022/08/21 09:09:11;;;;;;;10.57;2.42;;;;;;;-150.27;100.00;61272.81;5265325;28;20396;-81
2022/08/21 09:12:03;;;;;;;11.60;2.63;;;;;;;-150.27;100.00;61272.81;5234650;28;20046;-74
2022/08/21 09:14:51;;;;;;;9.15;2.20;;;;;;;-150.27;100.00;61272.81;5253002;28;20541;-77
2022/08/21 09:17:34;;;;;;;9.98;2.58;;;;;;;-150.27;100.00;61272.81;5252884;28;20032;-67
2022/08/21 09:20:23;;;;;;;10.20;3.05;;;;;;;-150.27;100.00;61272.81;5258369;28;20543;-73
2022/08/21 09:23:23;;;;;;;10.50;2.20;;;;;;;-150.27;100.00;61272.81;5246552;28;20013;-72
2022/08/21 09:26:05;;;;;;;14.45;3.65;;;;;;;-150.27;100.00;61272.81;5243273;28;20508;-77
2022/08/21 09:28:36;;;;;;;7.32;2.10;;;;;;;-150.27;100.00;61272.81;5254121;28;20029;-76
2022/08/21 09:31:16;;;;;;;13.77;2.53;;;;;;;-150.27;100.00;61272.81;5253978;28;20082;-77
2022/08/21 09:33:48;;;;;;;9.48;2.63;;;;;;;-150.27;100.00;61272.81;5253349;28;20060;-77
2022/08/21 09:36:36;;;;;;;8.98;2.42;;;;;;;-150.27;100.00;61272.81;5246780;28;20679;-77
2022/08/21 09:39:10;;;;;;;9.40;2.35;;;;;;;-150.27;100.00;61272.81;5233282;28;20592;-76
2022/08/21 09:41:41;;;;;;;9.93;2.00;;;;;;;-150.27;100.00;61272.81;5244509;28;20029;-76
2022/08/21 09:44:12;;;;;;;8.38;2.17;;;;;;;-150.27;100.00;61272.81;5253944;28;20531;-77
2022/08/21 09:46:51;;;;;;;13.05;2.58;;;;;;;-150.27;100.00;61272.81;5253357;28;20021;-75
2022/08/21 09:49:37;;;;;;;7.57;2.00;;;;;;;-150.27;100.00;61272.81;5251544;28;20025;-74
2022/08/21 09:52:21;;;;;;;7.40;1.90;;;;;;;-150.27;100.00;61272.81;5253888;28;20036;-76
2022/08/21 09:54:54;;;;;;;;;;;;;;;-150.27;100.00;61272.81;5254151;28;20416;-75
2022/08/21 09:57:38;;;;;;;8.63;2.30;;;;;;;-150.27;100.00;61272.81;5252152;28;19967;-75
2022/08/21 10:00:26;;;;;;;7.82;2.03;;;;;;;-150.27;100.00;61272.81;5252074;28;20525;-75
2022/08/21 10:03:20;;;;;;;6.90;2.33;;;;;;;-150.27;100.00;61272.81;5252940;28;20025;-76
2022/08/21 10:05:53;;;;;;;;;;;;;;;-150.27;100.00;61272.81;5254110;28;20025;-76
2022/08/21 10:08:27;;;;;;;8.20;2.67;;;;;;;-150.27;100.00;61272.81;5253046;28;19920;-82
2022/08/21 10:11:04;;;;;;;;;;;;;;;-150.27;100.00;61272.81;5267369;28;20080;-76
2022/08/21 10:13:54;;;;;;;4.80;1.70;;;;;;;-150.27;100.00;61272.81;5255748;28;20455;-75
2022/08/21 10:16:33;;;;;;;8.68;2.25;;;;;;;-150.27;100.00;61272.81;5255915;28;20024;-79
2022/08/21 10:19:32;;;;;;;5.93;1.65;;;;;;;-150.27;100.00;61272.81;5273430;28;20021;-74
2022/08/21 10:22:13;;;;;;;7.53;2.50;;;;;;;-150.27;100.00;61272.81;5256013;28;20048;-78
2022/08/21 10:25:10;;;;;;;6.57;1.85;;;;;;;-150.27;100.00;61272.81;5273582;28;20067;-76
2022/08/21 10:27:51;;;;;;;7.72;1.88;;;;;;;-150.27;100.00;61272.81;5242580;28;20481;-74
2022/08/21 10:30:46;;;;;;;7.40;2.47;;;;;;;-150.27;100.00;61272.81;5273174;28;20591;-75
2022/08/21 10:33:33;;;;;;;8.13;2.30;;;;;;;-150.27;100.00;61272.81;5272733;28;20473;-72
2022/08/21 10:36:24;;;;;;;8.73;2.45;;;;;;;-150.27;100.00;61272.81;5274107;28;20099;-75
2022/08/21 10:39:05;;;;;;;11.20;2.67;;;;;;;-150.27;100.00;61272.81;5269632;28;20076;-73
2022/08/21 10:42:07;;;;;;;9.18;2.03;;;;;;;-150.27;100.00;61272.81;5254248;28;20060;-74
2022/08/21 10:44:56;;;;;;;9.93;1.48;;;;;;;-150.27;100.00;61272.81;5252107;28;20039;-75
2022/08/21 10:47:31;;;;;;;14.48;2.00;;;;;;;-150.27;100.00;61272.81;5259425;28;20024;-73
2022/08/21 10:50:28;;;;;;;7.18;1.98;;;;;;;-150.27;100.00;61272.81;5263216;28;20636;-74
2022/08/21 10:53:32;;;;;;;7.28;2.10;;;;;;;-150.27;100.00;61272.81;5263086;28;20492;-73
2022/08/21 10:56:23;;;;;;;7.55;2.33;;;;;;;-150.27;100.00;61272.81;5257461;28;20064;-73
2022/08/21 10:59:23;;;;;;;7.05;2.20;;;;;;;-150.27;100.00;61272.81;5263159;28;20020;-75
2022/08/21 11:02:01;;;;;;;6.70;2.60;;;;;;;-150.27;100.00;61272.81;5263075;28;20124;-74
2022/08/21 11:04:45;;;;;;;7.40;2.30;;;;;;;-150.27;100.00;61272.81;5268746;28;20108;-75
2022/08/21 11:07:28;;;;;;;7.88;2.22;;;;;;;-150.27;100.00;61272.81;5265722;28;20032;-76
2022/08/21 11:10:10;;;;;;;10.48;2.65;;;;;;;-150.27;100.00;61272.81;5268438;28;20041;-75
2022/08/21 11:12:51;;;;;;;8.23;2.47;;;;;;;-150.27;100.00;61272.81;5267512;28;20036;-75
2022/08/21 11:15:54;;;;;;;6.57;2.80;;;;;;;-150.27;100.00;61272.81;5258836;28;20104;-74
2022/08/21 11:18:34;;;;;;;10.43;2.90;;;;;;;-150.27;100.00;61272.81;5252912;28;20080;-74
2022/08/21 11:21:27;;;;;;;10.88;2.10;;;;;;;-150.27;100.00;61272.81;5273010;28;20645;-74
2022/08/21 11:24:10;;;;;;;8.18;2.67;;;;;;;-150.27;100.00;61272.81;5273127;28;20039;-73
2022/08/21 11:26:47;;;;;;;9.23;2.65;;;;;;;-150.27;100.00;61272.81;5272269;28;20025;-74
2022/08/21 11:29:33;;;;;;;8.23;2.38;;;;;;;-150.27;100.00;61272.81;5254852;28;20107;-75
2022/08/21 11:32:32;;;;;;;7.25;1.83;;;;;;;-150.27;100.00;61272.81;5270375;28;20439;-75
2022/08/21 11:35:22;;;;;;;8.07;2.25;;;;;;;-150.27;100.00;61272.81;5272099;28;20045;-75
2022/08/21 11:37:56;;;;;;;9.85;2.60;;;;;;;-150.27;100.00;61272.81;5254660;28;20043;-75
2022/08/21 11:40:55;;;;;;;8.32;2.35;;;;;;;-150.27;100.00;61272.81;5267915;28;20358;-76